sensor_id;sensor_type;location;lat;lon;timestamp;P1;durP1;ratioP1;P2;durP2;ratioP2
44270;SDS011;29963;44.594;11.368;2023-02-01T00:01:47;10.73;;;8.23;;
44270;SDS011;29963;44.594;11.368;2023-02-01T00:04:13;9.65;;;7.00;;
44270;SDS011;29963;44.594;11.368;2023-02-01T00:06:39;8.75;;;7.25;;
44270;SDS011;29963;44.594;11.368;2023-02-01T00:09:04;10.68;;;7.72;;
44270;SDS011;29963;44.594;11.368;2023-02-01T00:11:32;12.27;;;8.20;;
44270;SDS011;29963;44.594;11.368;2023-02-01T00:13:58;8.23;;;6.80;;
44270;SDS011;29963;44.594;11.368;2023-02-01T00:16:25;10.57;;;7.35;;
44270;SDS011;29963;44.594;11.368;2023-02-01T00:18:56;10.15;;;7.25;;
44270;SDS011;29963;44.594;11.368;2023-02-01T00:21:34;12.73;;;6.97;;
44270;SDS011;29963;44.594;11.368;2023-02-01T00:24:00;11.57;;;6.43;;
44270;SDS011;29963;44.594;11.368;2023-02-01T00:26:32;13.40;;;8.77;;
44270;SDS011;29963;44.594;11.368;2023-02-01T00:29:01;9.18;;;6.65;;
44270;SDS011;29963;44.594;11.368;2023-02-01T00:31:28;14.63;;;7.47;;
44270;SDS011;29963;44.594;11.368;2023-02-01T00:33:54;9.98;;;6.50;;
44270;SDS011;29963;44.594;11.368;2023-02-01T00:36:22;10.45;;;6.85;;
44270;SDS011;29963;44.594;11.368;2023-02-01T00:38:48;10.77;;;6.93;;
44270;SDS011;29963;44.594;11.368;2023-02-01T00:41:15;10.60;;;6.65;;
44270;SDS011;29963;44.594;11.368;2023-02-01T00:43:42;11.80;;;6.78;;
44270;SDS011;29963;44.594;11.368;2023-02-01T00:46:09;9.43;;;6.97;;
44270;SDS011;29963;44.594;11.368;2023-02-01T00:48:36;7.63;;;6.03;;
44270;SDS011;29963;44.594;11.368;2023-02-01T00:51:03;9.15;;;6.03;;
44270;SDS011;29963;44.594;11.368;2023-02-01T00:53:31;8.13;;;7.22;;
44270;SDS011;29963;44.594;11.368;2023-02-01T00:55:57;11.27;;;5.90;;
44270;SDS011;29963;44.594;11.368;2023-02-01T00:58:23;10.85;;;6.03;;
44270;SDS011;29963;44.594;11.368;2023-02-01T01:01:14;9.18;;;6.20;;
44270;SDS011;29963;44.594;11.368;2023-02-01T01:03:48;8.05;;;5.75;;
44270;SDS011;29963;44.594;11.368;2023-02-01T01:06:16;9.60;;;6.28;;
44270;SDS011;29963;44.594;11.368;2023-02-01T01:08:47;14.52;;;7.72;;
44270;SDS011;29963;44.594;11.368;2023-02-01T01:11:17;20.02;;;14.05;;
44270;SDS011;29963;44.594;11.368;2023-02-01T01:13:45;21.40;;;11.18;;
44270;SDS011;29963;44.594;11.368;2023-02-01T01:16:12;12.50;;;8.65;;
44270;SDS011;29963;44.594;11.368;2023-02-01T01:18:38;10.27;;;7.95;;
44270;SDS011;29963;44.594;11.368;2023-02-01T01:21:08;11.05;;;7.45;;
44270;SDS011;29963;44.594;11.368;2023-02-01T01:23:35;9.20;;;6.70;;
44270;SDS011;29963;44.594;11.368;2023-02-01T01:26:00;11.48;;;8.20;;
44270;SDS011;29963;44.594;11.368;2023-02-01T01:28:30;11.65;;;8.20;;
44270;SDS011;29963;44.594;11.368;2023-02-01T01:30:56;12.88;;;8.40;;
44270;SDS011;29963;44.594;11.368;2023-02-01T01:33:21;9.38;;;7.07;;
44270;SDS011;29963;44.594;11.368;2023-02-01T01:35:47;11.15;;;6.97;;
44270;SDS011;29963;44.594;11.368;2023-02-01T01:38:13;8.13;;;6.40;;
44270;SDS011;29963;44.594;11.368;2023-02-01T01:40:38;9.15;;;7.00;;
44270;SDS011;29963;44.594;11.368;2023-02-01T01:43:14;9.07;;;6.57;;
44270;SDS011;29963;44.594;11.368;2023-02-01T01:45:42;9.95;;;7.07;;
44270;SDS011;29963;44.594;11.368;2023-02-01T01:50:51;10.88;;;6.55;;
44270;SDS011;29963;44.594;11.368;2023-02-01T01:53:27;8.85;;;5.35;;
44270;SDS011;29963;44.594;11.368;2023-02-01T01:55:55;8.90;;;6.25;;
44270;SDS011;29963;44.594;11.368;2023-02-01T01:58:22;7.93;;;5.53;;
44270;SDS011;29963;44.594;11.368;2023-02-01T02:00:50;9.75;;;5.47;;
44270;SDS011;29963;44.594;11.368;2023-02-01T02:03:19;9.80;;;5.53;;
44270;SDS011;29963;44.594;11.368;2023-02-01T02:05:48;12.23;;;6.45;;
44270;SDS011;29963;44.594;11.368;2023-02-01T02:08:17;10.50;;;6.35;;
44270;SDS011;29963;44.594;11.368;2023-02-01T02:10:45;9.68;;;6.15;;
44270;SDS011;29963;44.594;11.368;2023-02-01T02:13:43;9.35;;;6.22;;
44270;SDS011;29963;44.594;11.368;2023-02-01T02:21:17;9.90;;;5.95;;
44270;SDS011;29963;44.594;11.368;2023-02-01T02:23:58;7.10;;;5.75;;
44270;SDS011;29963;44.594;11.368;2023-02-01T02:29:54;7.25;;;4.97;;
44270;SDS011;29963;44.594;11.368;2023-02-01T02:32:39;8.32;;;4.63;;
44270;SDS011;29963;44.594;11.368;2023-02-01T02:35:30;6.45;;;5.05;;
44270;SDS011;29963;44.594;11.368;2023-02-01T02:38:06;6.18;;;4.95;;
44270;SDS011;29963;44.594;11.368;2023-02-01T02:43:21;8.82;;;5.32;;
44270;SDS011;29963;44.594;11.368;2023-02-01T02:49:23;7.00;;;5.47;;
44270;SDS011;29963;44.594;11.368;2023-02-01T02:51:58;26.85;;;17.55;;
44270;SDS011;29963;44.594;11.368;2023-02-01T02:54:48;26.42;;;16.90;;
44270;SDS011;29963;44.594;11.368;2023-02-01T02:57:24;26.30;;;17.85;;
44270;SDS011;29963;44.594;11.368;2023-02-01T03:00:14;13.07;;;9.57;;
44270;SDS011;29963;44.594;11.368;2023-02-01T03:03:02;11.60;;;7.85;;
44270;SDS011;29963;44.594;11.368;2023-02-01T03:05:48;13.70;;;7.88;;
44270;SDS011;29963;44.594;11.368;2023-02-01T03:08:19;12.23;;;7.05;;
44270;SDS011;29963;44.594;11.368;2023-02-01T03:11:00;10.65;;;8.13;;
44270;SDS011;29963;44.594;11.368;2023-02-01T03:16:03;10.77;;;8.30;;
44270;SDS011;29963;44.594;11.368;2023-02-01T03:21:02;14.32;;;9.88;;
44270;SDS011;29963;44.594;11.368;2023-02-01T03:23:34;12.20;;;9.75;;
44270;SDS011;29963;44.594;11.368;2023-02-01T03:26:02;11.48;;;6.93;;
44270;SDS011;29963;44.594;11.368;2023-02-01T03:28:31;11.52;;;8.88;;
44270;SDS011;29963;44.594;11.368;2023-02-01T03:31:02;13.20;;;8.93;;
44270;SDS011;29963;44.594;11.368;2023-02-01T03:33:28;9.93;;;7.88;;
44270;SDS011;29963;44.594;11.368;2023-02-01T03:41:03;13.23;;;8.93;;
44270;SDS011;29963;44.594;11.368;2023-02-01T03:43:40;15.25;;;8.93;;
44270;SDS011;29963;44.594;11.368;2023-02-01T03:46:14;14.05;;;8.93;;
44270;SDS011;29963;44.594;11.368;2023-02-01T03:48:45;11.25;;;8.52;;
44270;SDS011;29963;44.594;11.368;2023-02-01T03:51:13;13.45;;;9.23;;
44270;SDS011;29963;44.594;11.368;2023-02-01T03:53:39;15.35;;;10.32;;
44270;SDS011;29963;44.594;11.368;2023-02-01T03:56:07;16.85;;;10.38;;
44270;SDS011;29963;44.594;11.368;2023-02-01T03:58:36;17.20;;;11.40;;
44270;SDS011;29963;44.594;11.368;2023-02-01T04:01:02;17.10;;;12.40;;
44270;SDS011;29963;44.594;11.368;2023-02-01T04:03:28;16.55;;;11.88;;
44270;SDS011;29963;44.594;11.368;2023-02-01T04:05:54;20.02;;;11.55;;
44270;SDS011;29963;44.594;11.368;2023-02-01T04:08:20;14.43;;;9.90;;
44270;SDS011;29963;44.594;11.368;2023-02-01T04:10:46;14.15;;;9.07;;
44270;SDS011;29963;44.594;11.368;2023-02-01T04:13:12;12.55;;;8.88;;
44270;SDS011;29963;44.594;11.368;2023-02-01T04:15:38;19.10;;;9.23;;
44270;SDS011;29963;44.594;11.368;2023-02-01T04:18:03;11.77;;;8.68;;
44270;SDS011;29963;44.594;11.368;2023-02-01T04:20:29;12.48;;;8.80;;
44270;SDS011;29963;44.594;11.368;2023-02-01T04:22:55;15.35;;;9.60;;
44270;SDS011;29963;44.594;11.368;2023-02-01T04:25:20;15.30;;;9.68;;
44270;SDS011;29963;44.594;11.368;2023-02-01T04:27:46;12.88;;;9.73;;
44270;SDS011;29963;44.594;11.368;2023-02-01T04:30:12;11.20;;;9.10;;
44270;SDS011;29963;44.594;11.368;2023-02-01T04:32:39;11.18;;;9.10;;
44270;SDS011;29963;44.594;11.368;2023-02-01T04:35:05;12.23;;;9.07;;
44270;SDS011;29963;44.594;11.368;2023-02-01T04:37:31;11.38;;;8.55;;
44270;SDS011;29963;44.594;11.368;2023-02-01T04:39:57;10.65;;;8.18;;
44270;SDS011;29963;44.594;11.368;2023-02-01T04:42:25;13.75;;;8.40;;
44270;SDS011;29963;44.594;11.368;2023-02-01T04:44:51;11.23;;;8.30;;
44270;SDS011;29963;44.594;11.368;2023-02-01T04:47:16;11.63;;;8.65;;
44270;SDS011;29963;44.594;11.368;2023-02-01T04:49:42;15.85;;;8.95;;
44270;SDS011;29963;44.594;11.368;2023-02-01T04:52:07;12.63;;;9.10;;
44270;SDS011;29963;44.594;11.368;2023-02-01T04:54:33;11.75;;;8.90;;
44270;SDS011;29963;44.594;11.368;2023-02-01T04:57:02;12.45;;;8.90;;
44270;SDS011;29963;44.594;11.368;2023-02-01T04:59:28;11.70;;;8.20;;
44270;SDS011;29963;44.594;11.368;2023-02-01T05:01:53;11.18;;;8.32;;
44270;SDS011;29963;44.594;11.368;2023-02-01T05:04:19;11.70;;;9.15;;
44270;SDS011;29963;44.594;11.368;2023-02-01T05:06:45;10.25;;;8.38;;
44270;SDS011;29963;44.594;11.368;2023-02-01T05:09:10;17.38;;;9.27;;
44270;SDS011;29963;44.594;11.368;2023-02-01T05:11:36;11.38;;;7.75;;
44270;SDS011;29963;44.594;11.368;2023-02-01T05:14:20;12.52;;;7.65;;
44270;SDS011;29963;44.594;11.368;2023-02-01T05:16:46;9.13;;;7.03;;
44270;SDS011;29963;44.594;11.368;2023-02-01T05:19:12;12.10;;;7.68;;
44270;SDS011;29963;44.594;11.368;2023-02-01T05:21:37;13.45;;;8.02;;
44270;SDS011;29963;44.594;11.368;2023-02-01T05:24:07;10.60;;;7.25;;
44270;SDS011;29963;44.594;11.368;2023-02-01T05:26:39;9.38;;;7.75;;
44270;SDS011;29963;44.594;11.368;2023-02-01T05:29:05;10.65;;;7.88;;
44270;SDS011;29963;44.594;11.368;2023-02-01T05:31:32;9.73;;;7.22;;
44270;SDS011;29963;44.594;11.368;2023-02-01T05:33:58;10.57;;;7.28;;
44270;SDS011;29963;44.594;11.368;2023-02-01T05:36:24;10.10;;;7.75;;
44270;SDS011;29963;44.594;11.368;2023-02-01T05:38:50;13.25;;;8.23;;
44270;SDS011;29963;44.594;11.368;2023-02-01T05:41:16;13.85;;;8.07;;
44270;SDS011;29963;44.594;11.368;2023-02-01T05:43:41;10.38;;;7.32;;
44270;SDS011;29963;44.594;11.368;2023-02-01T05:46:07;9.05;;;7.30;;
44270;SDS011;29963;44.594;11.368;2023-02-01T05:48:35;11.52;;;7.65;;
44270;SDS011;29963;44.594;11.368;2023-02-01T05:51:01;11.10;;;7.38;;
44270;SDS011;29963;44.594;11.368;2023-02-01T05:53:27;12.77;;;7.15;;
44270;SDS011;29963;44.594;11.368;2023-02-01T05:55:52;10.25;;;8.27;;
44270;SDS011;29963;44.594;11.368;2023-02-01T05:58:18;10.07;;;7.18;;
44270;SDS011;29963;44.594;11.368;2023-02-01T06:00:43;12.15;;;7.28;;
44270;SDS011;29963;44.594;11.368;2023-02-01T06:03:09;12.25;;;7.80;;
44270;SDS011;29963;44.594;11.368;2023-02-01T06:05:35;9.05;;;7.38;;
44270;SDS011;29963;44.594;11.368;2023-02-01T06:08:01;10.05;;;7.53;;
44270;SDS011;29963;44.594;11.368;2023-02-01T06:10:27;10.38;;;7.32;;
44270;SDS011;29963;44.594;11.368;2023-02-01T06:12:53;9.13;;;6.68;;
44270;SDS011;29963;44.594;11.368;2023-02-01T06:15:19;11.10;;;7.20;;
44270;SDS011;29963;44.594;11.368;2023-02-01T06:17:45;12.05;;;7.63;;
44270;SDS011;29963;44.594;11.368;2023-02-01T06:20:12;12.30;;;8.02;;
44270;SDS011;29963;44.594;11.368;2023-02-01T06:22:39;10.30;;;8.30;;
44270;SDS011;29963;44.594;11.368;2023-02-01T06:25:05;9.32;;;7.75;;
44270;SDS011;29963;44.594;11.368;2023-02-01T06:27:33;12.20;;;8.02;;
44270;SDS011;29963;44.594;11.368;2023-02-01T06:29:59;12.30;;;7.85;;
44270;SDS011;29963;44.594;11.368;2023-02-01T06:32:25;13.05;;;8.68;;
44270;SDS011;29963;44.594;11.368;2023-02-01T06:34:51;12.98;;;8.60;;
44270;SDS011;29963;44.594;11.368;2023-02-01T06:37:21;14.60;;;9.43;;
44270;SDS011;29963;44.594;11.368;2023-02-01T06:39:48;10.98;;;8.10;;
44270;SDS011;29963;44.594;11.368;2023-02-01T06:42:13;12.27;;;8.38;;
44270;SDS011;29963;44.594;11.368;2023-02-01T06:44:39;10.07;;;7.88;;
44270;SDS011;29963;44.594;11.368;2023-02-01T06:47:08;9.63;;;8.05;;
44270;SDS011;29963;44.594;11.368;2023-02-01T06:49:33;12.15;;;8.13;;
44270;SDS011;29963;44.594;11.368;2023-02-01T06:51:59;10.95;;;8.68;;
44270;SDS011;29963;44.594;11.368;2023-02-01T06:54:25;8.68;;;7.57;;
44270;SDS011;29963;44.594;11.368;2023-02-01T06:56:51;12.50;;;7.80;;
44270;SDS011;29963;44.594;11.368;2023-02-01T06:59:17;10.13;;;8.23;;
44270;SDS011;29963;44.594;11.368;2023-02-01T07:01:43;13.85;;;8.73;;
44270;SDS011;29963;44.594;11.368;2023-02-01T07:04:09;9.32;;;7.50;;
44270;SDS011;29963;44.594;11.368;2023-02-01T07:06:36;8.80;;;7.03;;
44270;SDS011;29963;44.594;11.368;2023-02-01T07:09:02;11.43;;;7.47;;
44270;SDS011;29963;44.594;11.368;2023-02-01T07:11:28;10.15;;;7.47;;
44270;SDS011;29963;44.594;11.368;2023-02-01T07:13:55;12.07;;;9.10;;
44270;SDS011;29963;44.594;11.368;2023-02-01T07:16:21;10.93;;;8.27;;
44270;SDS011;29963;44.594;11.368;2023-02-01T07:18:47;16.55;;;9.23;;
44270;SDS011;29963;44.594;11.368;2023-02-01T07:21:14;14.73;;;10.35;;
44270;SDS011;29963;44.594;11.368;2023-02-01T07:23:40;25.33;;;20.73;;
44270;SDS011;29963;44.594;11.368;2023-02-01T07:26:06;21.50;;;15.80;;
44270;SDS011;29963;44.594;11.368;2023-02-01T07:28:37;19.33;;;12.18;;
44270;SDS011;29963;44.594;11.368;2023-02-01T07:31:05;15.20;;;10.02;;
44270;SDS011;29963;44.594;11.368;2023-02-01T07:33:32;14.90;;;11.32;;
44270;SDS011;29963;44.594;11.368;2023-02-01T07:36:00;13.18;;;10.73;;
44270;SDS011;29963;44.594;11.368;2023-02-01T07:38:27;14.73;;;9.95;;
44270;SDS011;29963;44.594;11.368;2023-02-01T07:40:57;15.00;;;10.00;;
44270;SDS011;29963;44.594;11.368;2023-02-01T07:43:23;14.27;;;9.30;;
44270;SDS011;29963;44.594;11.368;2023-02-01T07:45:53;16.17;;;9.60;;
44270;SDS011;29963;44.594;11.368;2023-02-01T07:48:19;15.23;;;9.88;;
44270;SDS011;29963;44.594;11.368;2023-02-01T07:50:46;14.93;;;10.55;;
44270;SDS011;29963;44.594;11.368;2023-02-01T07:53:12;16.52;;;10.68;;
44270;SDS011;29963;44.594;11.368;2023-02-01T07:55:38;15.02;;;9.77;;
44270;SDS011;29963;44.594;11.368;2023-02-01T07:58:04;19.38;;;11.80;;
44270;SDS011;29963;44.594;11.368;2023-02-01T08:00:30;15.88;;;10.80;;
44270;SDS011;29963;44.594;11.368;2023-02-01T08:03:14;14.73;;;10.45;;
44270;SDS011;29963;44.594;11.368;2023-02-01T08:05:39;22.08;;;10.55;;
44270;SDS011;29963;44.594;11.368;2023-02-01T08:08:05;19.08;;;9.63;;
44270;SDS011;29963;44.594;11.368;2023-02-01T08:10:31;13.38;;;10.63;;
44270;SDS011;29963;44.594;11.368;2023-02-01T08:12:59;12.10;;;9.95;;
44270;SDS011;29963;44.594;11.368;2023-02-01T08:15:26;26.50;;;19.17;;
44270;SDS011;29963;44.594;11.368;2023-02-01T08:17:53;22.27;;;14.10;;
44270;SDS011;29963;44.594;11.368;2023-02-01T08:20:23;14.57;;;9.57;;
44270;SDS011;29963;44.594;11.368;2023-02-01T08:22:50;15.98;;;10.38;;
44270;SDS011;29963;44.594;11.368;2023-02-01T08:25:16;13.10;;;9.35;;
44270;SDS011;29963;44.594;11.368;2023-02-01T08:27:42;13.93;;;11.02;;
44270;SDS011;29963;44.594;11.368;2023-02-01T08:30:08;13.88;;;10.35;;
44270;SDS011;29963;44.594;11.368;2023-02-01T08:32:35;14.27;;;9.27;;
44270;SDS011;29963;44.594;11.368;2023-02-01T08:35:01;11.93;;;10.30;;
44270;SDS011;29963;44.594;11.368;2023-02-01T08:37:27;12.57;;;10.43;;
44270;SDS011;29963;44.594;11.368;2023-02-01T08:39:52;17.85;;;11.10;;
44270;SDS011;29963;44.594;11.368;2023-02-01T08:42:18;13.63;;;9.80;;
44270;SDS011;29963;44.594;11.368;2023-02-01T08:45:03;13.70;;;9.70;;
44270;SDS011;29963;44.594;11.368;2023-02-01T08:47:29;13.80;;;9.30;;
44270;SDS011;29963;44.594;11.368;2023-02-01T08:49:55;15.32;;;10.55;;
44270;SDS011;29963;44.594;11.368;2023-02-01T08:52:20;12.40;;;10.15;;
44270;SDS011;29963;44.594;11.368;2023-02-01T08:54:46;11.93;;;8.05;;
44270;SDS011;29963;44.594;11.368;2023-02-01T08:57:12;13.90;;;9.63;;
44270;SDS011;29963;44.594;11.368;2023-02-01T08:59:38;16.15;;;9.95;;
44270;SDS011;29963;44.594;11.368;2023-02-01T09:02:03;15.02;;;8.98;;
44270;SDS011;29963;44.594;11.368;2023-02-01T09:04:29;12.60;;;9.27;;
44270;SDS011;29963;44.594;11.368;2023-02-01T09:06:55;11.50;;;7.93;;
44270;SDS011;29963;44.594;11.368;2023-02-01T09:09:23;11.20;;;7.85;;
44270;SDS011;29963;44.594;11.368;2023-02-01T09:11:52;15.23;;;9.63;;
44270;SDS011;29963;44.594;11.368;2023-02-01T09:14:18;12.95;;;8.48;;
44270;SDS011;29963;44.594;11.368;2023-02-01T09:16:43;12.05;;;8.38;;
44270;SDS011;29963;44.594;11.368;2023-02-01T09:19:09;21.27;;;9.75;;
44270;SDS011;29963;44.594;11.368;2023-02-01T09:21:35;15.27;;;8.57;;
44270;SDS011;29963;44.594;11.368;2023-02-01T09:24:00;11.52;;;8.77;;
44270;SDS011;29963;44.594;11.368;2023-02-01T09:26:27;16.40;;;9.80;;
44270;SDS011;29963;44.594;11.368;2023-02-01T09:28:52;18.17;;;9.18;;
44270;SDS011;29963;44.594;11.368;2023-02-01T09:31:18;16.77;;;10.35;;
44270;SDS011;29963;44.594;11.368;2023-02-01T09:33:44;19.10;;;11.07;;
44270;SDS011;29963;44.594;11.368;2023-02-01T09:36:10;14.77;;;10.23;;
44270;SDS011;29963;44.594;11.368;2023-02-01T09:38:35;17.13;;;11.70;;
44270;SDS011;29963;44.594;11.368;2023-02-01T09:41:01;19.52;;;12.95;;
44270;SDS011;29963;44.594;11.368;2023-02-01T09:43:42;19.45;;;13.38;;
44270;SDS011;29963;44.594;11.368;2023-02-01T09:46:21;20.42;;;13.25;;
44270;SDS011;29963;44.594;11.368;2023-02-01T09:48:52;21.58;;;13.10;;
44270;SDS011;29963;44.594;11.368;2023-02-01T09:51:24;22.23;;;15.73;;
44270;SDS011;29963;44.594;11.368;2023-02-01T09:54:06;29.05;;;20.95;;
44270;SDS011;29963;44.594;11.368;2023-02-01T09:56:57;38.13;;;24.27;;
44270;SDS011;29963;44.594;11.368;2023-02-01T10:00:09;26.27;;;18.15;;
44270;SDS011;29963;44.594;11.368;2023-02-01T10:02:41;23.38;;;15.35;;
44270;SDS011;29963;44.594;11.368;2023-02-01T10:05:10;27.23;;;16.67;;
44270;SDS011;29963;44.594;11.368;2023-02-01T10:10:14;24.52;;;18.25;;
44270;SDS011;29963;44.594;11.368;2023-02-01T10:26:39;25.45;;;16.75;;
44270;SDS011;29963;44.594;11.368;2023-02-01T10:29:19;32.28;;;16.55;;
44270;SDS011;29963;44.594;11.368;2023-02-01T10:31:47;26.85;;;15.48;;
44270;SDS011;29963;44.594;11.368;2023-02-01T10:34:18;20.60;;;12.98;;
44270;SDS011;29963;44.594;11.368;2023-02-01T10:39:46;20.17;;;15.13;;
44270;SDS011;29963;44.594;11.368;2023-02-01T10:42:13;22.02;;;15.63;;
44270;SDS011;29963;44.594;11.368;2023-02-01T10:44:40;26.20;;;15.82;;
44270;SDS011;29963;44.594;11.368;2023-02-01T10:47:10;28.67;;;16.10;;
44270;SDS011;29963;44.594;11.368;2023-02-01T10:49:41;25.70;;;15.73;;
44270;SDS011;29963;44.594;11.368;2023-02-01T10:52:20;24.27;;;16.85;;
44270;SDS011;29963;44.594;11.368;2023-02-01T10:54:51;26.02;;;15.60;;
44270;SDS011;29963;44.594;11.368;2023-02-01T10:57:25;25.60;;;17.63;;
44270;SDS011;29963;44.594;11.368;2023-02-01T10:59:54;28.40;;;19.25;;
44270;SDS011;29963;44.594;11.368;2023-02-01T11:02:29;29.63;;;20.02;;
44270;SDS011;29963;44.594;11.368;2023-02-01T11:05:03;27.05;;;18.63;;
44270;SDS011;29963;44.594;11.368;2023-02-01T11:07:37;27.25;;;19.55;;
44270;SDS011;29963;44.594;11.368;2023-02-01T11:10:33;35.72;;;19.95;;
44270;SDS011;29963;44.594;11.368;2023-02-01T11:13:13;33.35;;;21.33;;
44270;SDS011;29963;44.594;11.368;2023-02-01T11:15:44;34.65;;;22.33;;
44270;SDS011;29963;44.594;11.368;2023-02-01T11:18:20;34.35;;;23.88;;
44270;SDS011;29963;44.594;11.368;2023-02-01T11:20:52;36.85;;;24.95;;
44270;SDS011;29963;44.594;11.368;2023-02-01T11:23:20;40.35;;;27.80;;
44270;SDS011;29963;44.594;11.368;2023-02-01T11:25:59;40.47;;;27.15;;
44270;SDS011;29963;44.594;11.368;2023-02-01T11:28:27;37.75;;;26.73;;
44270;SDS011;29963;44.594;11.368;2023-02-01T11:30:58;34.40;;;24.45;;
44270;SDS011;29963;44.594;11.368;2023-02-01T11:33:32;35.90;;;25.73;;
44270;SDS011;29963;44.594;11.368;2023-02-01T11:36:11;34.60;;;24.45;;
44270;SDS011;29963;44.594;11.368;2023-02-01T11:38:45;38.67;;;26.75;;
44270;SDS011;29963;44.594;11.368;2023-02-01T11:41:21;35.53;;;26.23;;
44270;SDS011;29963;44.594;11.368;2023-02-01T11:46:19;35.92;;;25.48;;
44270;SDS011;29963;44.594;11.368;2023-02-01T11:48:57;33.92;;;25.08;;
44270;SDS011;29963;44.594;11.368;2023-02-01T12:00:30;36.22;;;27.80;;
44270;SDS011;29963;44.594;11.368;2023-02-01T12:40:37;25.63;;;17.10;;
44270;SDS011;29963;44.594;11.368;2023-02-01T12:43:32;23.25;;;13.80;;
44270;SDS011;29963;44.594;11.368;2023-02-01T12:45:58;21.95;;;14.57;;
44270;SDS011;29963;44.594;11.368;2023-02-01T12:48:34;23.77;;;14.85;;
44270;SDS011;29963;44.594;11.368;2023-02-01T12:51:14;21.30;;;13.93;;
44270;SDS011;29963;44.594;11.368;2023-02-01T12:53:45;15.60;;;11.00;;
44270;SDS011;29963;44.594;11.368;2023-02-01T12:56:22;18.88;;;12.18;;
44270;SDS011;29963;44.594;11.368;2023-02-01T12:58:58;18.98;;;12.90;;
44270;SDS011;29963;44.594;11.368;2023-02-01T13:01:41;22.02;;;15.13;;
44270;SDS011;29963;44.594;11.368;2023-02-01T13:04:19;25.95;;;13.88;;
44270;SDS011;29963;44.594;11.368;2023-02-01T13:07:19;19.30;;;13.85;;
44270;SDS011;29963;44.594;11.368;2023-02-01T13:12:51;17.58;;;12.18;;
44270;SDS011;29963;44.594;11.368;2023-02-01T13:15:27;18.33;;;13.02;;
44270;SDS011;29963;44.594;11.368;2023-02-01T13:17:58;18.50;;;13.30;;
44270;SDS011;29963;44.594;11.368;2023-02-01T13:21:29;14.18;;;10.88;;
44270;SDS011;29963;44.594;11.368;2023-02-01T13:23:36;19.73;;;10.93;;
44270;SDS011;29963;44.594;11.368;2023-02-01T13:26:04;14.48;;;9.52;;
44270;SDS011;29963;44.594;11.368;2023-02-01T13:28:44;16.85;;;10.57;;
44270;SDS011;29963;44.594;11.368;2023-02-01T13:39:59;21.55;;;12.25;;
44270;SDS011;29963;44.594;11.368;2023-02-01T13:42:45;21.90;;;14.05;;
44270;SDS011;29963;44.594;11.368;2023-02-01T13:45:15;17.77;;;13.90;;
44270;SDS011;29963;44.594;11.368;2023-02-01T13:47:51;18.38;;;12.40;;
44270;SDS011;29963;44.594;11.368;2023-02-01T13:50:27;16.92;;;12.20;;
44270;SDS011;29963;44.594;11.368;2023-02-01T13:57:52;20.00;;;12.32;;
44270;SDS011;29963;44.594;11.368;2023-02-01T14:00:45;23.55;;;12.65;;
44270;SDS011;29963;44.594;11.368;2023-02-01T14:03:15;16.80;;;11.77;;
44270;SDS011;29963;44.594;11.368;2023-02-01T14:06:14;15.07;;;9.35;;
44270;SDS011;29963;44.594;11.368;2023-02-01T14:11:36;15.80;;;11.52;;
44270;SDS011;29963;44.594;11.368;2023-02-01T14:14:50;16.67;;;11.40;;
44270;SDS011;29963;44.594;11.368;2023-02-01T14:19:21;31.60;;;13.77;;
44270;SDS011;29963;44.594;11.368;2023-02-01T14:24:34;17.05;;;12.43;;
44270;SDS011;29963;44.594;11.368;2023-02-01T14:27:03;21.40;;;13.20;;
44270;SDS011;29963;44.594;11.368;2023-02-01T14:29:42;21.98;;;11.32;;
44270;SDS011;29963;44.594;11.368;2023-02-01T14:32:19;14.35;;;11.82;;
44270;SDS011;29963;44.594;11.368;2023-02-01T14:39:57;17.65;;;10.25;;
44270;SDS011;29963;44.594;11.368;2023-02-01T15:03:50;13.07;;;10.18;;
44270;SDS011;29963;44.594;11.368;2023-02-01T15:15:05;17.33;;;10.27;;
44270;SDS011;29963;44.594;11.368;2023-02-01T15:17:36;13.50;;;9.98;;
44270;SDS011;29963;44.594;11.368;2023-02-01T15:23:01;17.70;;;10.02;;
44270;SDS011;29963;44.594;11.368;2023-02-01T15:25:33;15.75;;;10.23;;
44270;SDS011;29963;44.594;11.368;2023-02-01T15:28:02;14.45;;;10.45;;
44270;SDS011;29963;44.594;11.368;2023-02-01T15:30:29;17.55;;;10.63;;
44270;SDS011;29963;44.594;11.368;2023-02-01T15:35:40;19.90;;;10.48;;
44270;SDS011;29963;44.594;11.368;2023-02-01T15:38:18;16.55;;;10.05;;
44270;SDS011;29963;44.594;11.368;2023-02-01T15:43:24;17.17;;;10.65;;
44270;SDS011;29963;44.594;11.368;2023-02-01T15:45:52;16.23;;;10.18;;
44270;SDS011;29963;44.594;11.368;2023-02-01T15:48:25;17.25;;;10.63;;
44270;SDS011;29963;44.594;11.368;2023-02-01T15:50:52;17.13;;;10.82;;
44270;SDS011;29963;44.594;11.368;2023-02-01T15:53:22;17.75;;;11.80;;
44270;SDS011;29963;44.594;11.368;2023-02-01T15:55:54;14.30;;;11.05;;
44270;SDS011;29963;44.594;11.368;2023-02-01T15:58:23;14.52;;;10.27;;
44270;SDS011;29963;44.594;11.368;2023-02-01T16:00:53;18.40;;;12.73;;
44270;SDS011;29963;44.594;11.368;2023-02-01T16:06:11;19.15;;;10.93;;
44270;SDS011;29963;44.594;11.368;2023-02-01T16:08:55;18.05;;;10.43;;
44270;SDS011;29963;44.594;11.368;2023-02-01T16:11:33;18.08;;;11.20;;
44270;SDS011;29963;44.594;11.368;2023-02-01T16:14:09;16.55;;;11.18;;
44270;SDS011;29963;44.594;11.368;2023-02-01T16:16:34;17.02;;;11.25;;
44270;SDS011;29963;44.594;11.368;2023-02-01T16:19:00;20.77;;;11.98;;
44270;SDS011;29963;44.594;11.368;2023-02-01T16:21:26;24.65;;;12.60;;
44270;SDS011;29963;44.594;11.368;2023-02-01T16:23:52;17.85;;;11.68;;
44270;SDS011;29963;44.594;11.368;2023-02-01T16:26:18;19.30;;;12.88;;
44270;SDS011;29963;44.594;11.368;2023-02-01T16:28:45;19.13;;;13.07;;
44270;SDS011;29963;44.594;11.368;2023-02-01T16:31:12;17.58;;;11.95;;
44270;SDS011;29963;44.594;11.368;2023-02-01T16:33:45;19.20;;;11.18;;
44270;SDS011;29963;44.594;11.368;2023-02-01T16:36:17;17.63;;;12.43;;
44270;SDS011;29963;44.594;11.368;2023-02-01T16:38:44;29.80;;;13.73;;
44270;SDS011;29963;44.594;11.368;2023-02-01T16:41:13;24.58;;;15.15;;
44270;SDS011;29963;44.594;11.368;2023-02-01T16:43:42;18.52;;;13.25;;
44270;SDS011;29963;44.594;11.368;2023-02-01T16:46:15;27.20;;;13.27;;
44270;SDS011;29963;44.594;11.368;2023-02-01T16:48:45;24.02;;;14.07;;
44270;SDS011;29963;44.594;11.368;2023-02-01T16:51:15;20.65;;;16.35;;
44270;SDS011;29963;44.594;11.368;2023-02-01T16:53:42;28.58;;;16.33;;
44270;SDS011;29963;44.594;11.368;2023-02-01T16:56:16;27.08;;;17.27;;
44270;SDS011;29963;44.594;11.368;2023-02-01T16:58:44;21.30;;;15.68;;
44270;SDS011;29963;44.594;11.368;2023-02-01T17:01:11;20.90;;;14.23;;
44270;SDS011;29963;44.594;11.368;2023-02-01T17:03:38;27.67;;;16.55;;
44270;SDS011;29963;44.594;11.368;2023-02-01T17:06:04;21.13;;;15.02;;
44270;SDS011;29963;44.594;11.368;2023-02-01T17:08:37;23.45;;;15.07;;
44270;SDS011;29963;44.594;11.368;2023-02-01T17:11:06;25.70;;;16.77;;
44270;SDS011;29963;44.594;11.368;2023-02-01T17:13:33;23.27;;;16.67;;
44270;SDS011;29963;44.594;11.368;2023-02-01T17:18:32;25.23;;;16.60;;
44270;SDS011;29963;44.594;11.368;2023-02-01T17:21:00;23.85;;;16.98;;
44270;SDS011;29963;44.594;11.368;2023-02-01T17:23:28;30.15;;;20.15;;